sensor_id;sensor_type;location;lat;lon;timestamp;P1;durP1;ratioP1;P2;durP2;ratioP2
42972;SDS011;28610;51.214;6.962;2023-02-28T00:02:00;11.10;;;7.23;;
42972;SDS011;28610;51.214;6.962;2023-02-28T00:04:45;12.30;;;7.27;;
42972;SDS011;28610;51.214;6.962;2023-02-28T00:07:44;10.70;;;7.00;;
42972;SDS011;28610;51.214;6.962;2023-02-28T00:10:30;14.27;;;7.40;;
42972;SDS011;28610;51.214;6.962;2023-02-28T00:13:17;11.37;;;6.80;;
42972;SDS011;28610;51.214;6.962;2023-02-28T00:16:04;13.30;;;7.00;;
42972;SDS011;28610;51.214;6.962;2023-02-28T00:18:50;13.47;;;6.80;;
42972;SDS011;28610;51.214;6.962;2023-02-28T00:21:36;13.30;;;6.80;;
42972;SDS011;28610;51.214;6.962;2023-02-28T00:24:24;10.77;;;6.80;;
42972;SDS011;28610;51.214;6.962;2023-02-28T00:27:09;15.43;;;7.30;;
42972;SDS011;28610;51.214;6.962;2023-02-28T00:29:57;9.93;;;7.17;;
42972;SDS011;28610;51.214;6.962;2023-02-28T00:32:43;9.97;;;7.33;;
42972;SDS011;28610;51.214;6.962;2023-02-28T00:35:28;10.07;;;7.30;;
42972;SDS011;28610;51.214;6.962;2023-02-28T00:38:14;13.20;;;7.50;;
42972;SDS011;28610;51.214;6.962;2023-02-28T00:41:00;9.27;;;7.00;;
42972;SDS011;28610;51.214;6.962;2023-02-28T00:43:48;10.27;;;7.30;;
42972;SDS011;28610;51.214;6.962;2023-02-28T00:46:35;10.67;;;7.40;;
42972;SDS011;28610;51.214;6.962;2023-02-28T00:49:20;13.13;;;7.67;;
42972;SDS011;28610;51.214;6.962;2023-02-28T00:52:06;11.27;;;7.00;;
42972;SDS011;28610;51.214;6.962;2023-02-28T00:54:51;11.53;;;7.33;;
42972;SDS011;28610;51.214;6.962;2023-02-28T00:57:37;11.77;;;7.80;;
42972;SDS011;28610;51.214;6.962;2023-02-28T01:00:23;12.90;;;7.50;;
42972;SDS011;28610;51.214;6.962;2023-02-28T01:03:10;15.10;;;7.90;;
42972;SDS011;28610;51.214;6.962;2023-02-28T01:05:56;12.20;;;7.67;;
42972;SDS011;28610;51.214;6.962;2023-02-28T01:08:42;11.43;;;7.60;;
42972;SDS011;28610;51.214;6.962;2023-02-28T01:11:28;11.10;;;7.70;;
42972;SDS011;28610;51.214;6.962;2023-02-28T01:14:14;12.83;;;7.70;;
42972;SDS011;28610;51.214;6.962;2023-02-28T01:16:59;13.70;;;7.60;;
42972;SDS011;28610;51.214;6.962;2023-02-28T01:19:46;12.07;;;8.03;;
42972;SDS011;28610;51.214;6.962;2023-02-28T01:22:32;13.60;;;8.30;;
42972;SDS011;28610;51.214;6.962;2023-02-28T01:25:19;14.83;;;7.93;;
42972;SDS011;28610;51.214;6.962;2023-02-28T01:28:05;10.37;;;7.90;;
42972;SDS011;28610;51.214;6.962;2023-02-28T01:30:51;12.53;;;7.87;;
42972;SDS011;28610;51.214;6.962;2023-02-28T01:33:36;12.60;;;7.63;;
42972;SDS011;28610;51.214;6.962;2023-02-28T01:36:24;12.60;;;8.23;;
42972;SDS011;28610;51.214;6.962;2023-02-28T01:39:10;16.13;;;8.53;;
42972;SDS011;28610;51.214;6.962;2023-02-28T01:41:56;11.77;;;7.57;;
42972;SDS011;28610;51.214;6.962;2023-02-28T01:44:59;14.67;;;8.47;;
42972;SDS011;28610;51.214;6.962;2023-02-28T01:47:45;11.23;;;7.40;;
42972;SDS011;28610;51.214;6.962;2023-02-28T01:50:33;11.23;;;7.63;;
42972;SDS011;28610;51.214;6.962;2023-02-28T01:53:21;19.17;;;7.70;;
42972;SDS011;28610;51.214;6.962;2023-02-28T01:56:10;13.10;;;7.67;;
42972;SDS011;28610;51.214;6.962;2023-02-28T01:59:03;11.63;;;7.77;;
42972;SDS011;28610;51.214;6.962;2023-02-28T02:01:49;14.47;;;8.47;;
42972;SDS011;28610;51.214;6.962;2023-02-28T02:04:37;13.03;;;8.23;;
42972;SDS011;28610;51.214;6.962;2023-02-28T02:07:23;13.47;;;7.90;;
42972;SDS011;28610;51.214;6.962;2023-02-28T02:10:14;15.63;;;8.13;;
42972;SDS011;28610;51.214;6.962;2023-02-28T02:13:04;10.40;;;7.90;;
42972;SDS011;28610;51.214;6.962;2023-02-28T02:15:54;11.50;;;8.57;;
42972;SDS011;28610;51.214;6.962;2023-02-28T02:18:43;12.20;;;8.33;;
42972;SDS011;28610;51.214;6.962;2023-02-28T02:24:56;12.30;;;7.97;;
42972;SDS011;28610;51.214;6.962;2023-02-28T02:27:53;12.30;;;8.37;;
42972;SDS011;28610;51.214;6.962;2023-02-28T02:30:46;14.90;;;8.40;;
42972;SDS011;28610;51.214;6.962;2023-02-28T02:36:41;16.07;;;8.70;;
42972;SDS011;28610;51.214;6.962;2023-02-28T02:39:31;12.57;;;8.33;;
42972;SDS011;28610;51.214;6.962;2023-02-28T02:42:20;10.93;;;8.07;;
42972;SDS011;28610;51.214;6.962;2023-02-28T02:45:09;13.00;;;8.87;;
42972;SDS011;28610;51.214;6.962;2023-02-28T02:47:56;14.50;;;8.90;;
42972;SDS011;28610;51.214;6.962;2023-02-28T02:50:42;13.80;;;8.53;;
42972;SDS011;28610;51.214;6.962;2023-02-28T02:53:32;14.50;;;8.70;;
42972;SDS011;28610;51.214;6.962;2023-02-28T02:56:19;11.93;;;8.47;;
42972;SDS011;28610;51.214;6.962;2023-02-28T02:59:06;14.67;;;8.67;;
42972;SDS011;28610;51.214;6.962;2023-02-28T03:01:54;17.07;;;8.60;;
42972;SDS011;28610;51.214;6.962;2023-02-28T03:04:42;13.03;;;8.40;;
42972;SDS011;28610;51.214;6.962;2023-02-28T03:07:29;16.57;;;9.17;;
42972;SDS011;28610;51.214;6.962;2023-02-28T03:10:35;15.20;;;8.97;;
42972;SDS011;28610;51.214;6.962;2023-02-28T03:13:26;13.87;;;9.33;;
42972;SDS011;28610;51.214;6.962;2023-02-28T03:16:34;15.30;;;8.93;;
42972;SDS011;28610;51.214;6.962;2023-02-28T03:19:24;18.00;;;9.33;;
42972;SDS011;28610;51.214;6.962;2023-02-28T03:22:14;14.30;;;8.87;;
42972;SDS011;28610;51.214;6.962;2023-02-28T03:25:04;15.07;;;9.20;;
42972;SDS011;28610;51.214;6.962;2023-02-28T03:27:55;13.63;;;9.13;;
42972;SDS011;28610;51.214;6.962;2023-02-28T03:30:46;14.77;;;9.30;;
42972;SDS011;28610;51.214;6.962;2023-02-28T03:33:36;17.17;;;9.50;;
42972;SDS011;28610;51.214;6.962;2023-02-28T03:36:24;14.60;;;8.00;;
42972;SDS011;28610;51.214;6.962;2023-02-28T03:39:11;14.50;;;8.33;;
42972;SDS011;28610;51.214;6.962;2023-02-28T03:42:00;14.13;;;9.20;;
42972;SDS011;28610;51.214;6.962;2023-02-28T03:44:48;13.37;;;8.47;;
42972;SDS011;28610;51.214;6.962;2023-02-28T03:47:36;13.27;;;8.87;;
42972;SDS011;28610;51.214;6.962;2023-02-28T03:50:23;13.07;;;8.53;;
42972;SDS011;28610;51.214;6.962;2023-02-28T03:53:12;13.17;;;7.90;;
42972;SDS011;28610;51.214;6.962;2023-02-28T03:56:01;13.33;;;8.47;;
42972;SDS011;28610;51.214;6.962;2023-02-28T03:58:50;13.87;;;8.30;;
42972;SDS011;28610;51.214;6.962;2023-02-28T04:01:39;13.20;;;9.07;;
42972;SDS011;28610;51.214;6.962;2023-02-28T04:04:26;14.47;;;8.40;;
42972;SDS011;28610;51.214;6.962;2023-02-28T04:07:11;14.53;;;8.70;;
42972;SDS011;28610;51.214;6.962;2023-02-28T04:09:57;15.53;;;8.53;;
42972;SDS011;28610;51.214;6.962;2023-02-28T04:12:43;12.33;;;8.30;;
42972;SDS011;28610;51.214;6.962;2023-02-28T04:15:29;15.20;;;8.13;;
42972;SDS011;28610;51.214;6.962;2023-02-28T04:18:17;12.13;;;8.37;;
42972;SDS011;28610;51.214;6.962;2023-02-28T04:21:02;12.03;;;7.73;;
42972;SDS011;28610;51.214;6.962;2023-02-28T04:23:48;12.10;;;8.13;;
42972;SDS011;28610;51.214;6.962;2023-02-28T04:26:34;11.63;;;8.20;;
42972;SDS011;28610;51.214;6.962;2023-02-28T04:29:21;15.37;;;8.13;;
42972;SDS011;28610;51.214;6.962;2023-02-28T04:32:07;18.50;;;7.27;;
42972;SDS011;28610;51.214;6.962;2023-02-28T04:34:53;9.93;;;6.97;;
42972;SDS011;28610;51.214;6.962;2023-02-28T04:37:39;9.60;;;7.80;;
42972;SDS011;28610;51.214;6.962;2023-02-28T04:40:25;13.63;;;8.27;;
42972;SDS011;28610;51.214;6.962;2023-02-28T04:43:10;10.53;;;7.27;;
42972;SDS011;28610;51.214;6.962;2023-02-28T04:45:56;16.73;;;7.70;;
42972;SDS011;28610;51.214;6.962;2023-02-28T04:48:43;10.80;;;7.47;;
42972;SDS011;28610;51.214;6.962;2023-02-28T04:51:30;11.53;;;7.77;;
42972;SDS011;28610;51.214;6.962;2023-02-28T04:54:16;10.97;;;7.03;;
42972;SDS011;28610;51.214;6.962;2023-02-28T04:57:01;10.70;;;7.63;;
42972;SDS011;28610;51.214;6.962;2023-02-28T04:59:48;10.40;;;7.33;;
42972;SDS011;28610;51.214;6.962;2023-02-28T05:02:33;9.20;;;6.97;;
42972;SDS011;28610;51.214;6.962;2023-02-28T05:05:19;12.13;;;6.97;;
42972;SDS011;28610;51.214;6.962;2023-02-28T05:08:06;14.07;;;7.63;;
42972;SDS011;28610;51.214;6.962;2023-02-28T05:10:52;11.10;;;7.17;;
42972;SDS011;28610;51.214;6.962;2023-02-28T05:13:38;10.97;;;7.20;;
42972;SDS011;28610;51.214;6.962;2023-02-28T05:16:23;10.33;;;7.40;;
42972;SDS011;28610;51.214;6.962;2023-02-28T05:19:09;10.10;;;7.10;;
42972;SDS011;28610;51.214;6.962;2023-02-28T05:21:55;10.10;;;7.87;;
42972;SDS011;28610;51.214;6.962;2023-02-28T05:24:42;8.17;;;6.97;;
42972;SDS011;28610;51.214;6.962;2023-02-28T05:27:27;11.73;;;7.37;;
42972;SDS011;28610;51.214;6.962;2023-02-28T05:30:13;9.33;;;6.77;;
42972;SDS011;28610;51.214;6.962;2023-02-28T05:32:59;10.50;;;7.53;;
42972;SDS011;28610;51.214;6.962;2023-02-28T05:35:45;9.40;;;7.20;;
42972;SDS011;28610;51.214;6.962;2023-02-28T05:38:30;11.47;;;7.37;;
42972;SDS011;28610;51.214;6.962;2023-02-28T05:41:18;11.03;;;7.47;;
42972;SDS011;28610;51.214;6.962;2023-02-28T05:44:03;9.43;;;7.17;;
42972;SDS011;28610;51.214;6.962;2023-02-28T05:46:49;12.07;;;7.47;;
42972;SDS011;28610;51.214;6.962;2023-02-28T05:49:35;11.60;;;6.80;;
42972;SDS011;28610;51.214;6.962;2023-02-28T05:52:21;8.70;;;6.30;;
42972;SDS011;28610;51.214;6.962;2023-02-28T05:55:07;10.33;;;7.30;;
42972;SDS011;28610;51.214;6.962;2023-02-28T05:57:54;8.53;;;6.53;;
42972;SDS011;28610;51.214;6.962;2023-02-28T06:00:40;10.73;;;6.87;;
42972;SDS011;28610;51.214;6.962;2023-02-28T06:03:25;10.23;;;7.13;;
42972;SDS011;28610;51.214;6.962;2023-02-28T06:06:11;9.97;;;7.20;;
42972;SDS011;28610;51.214;6.962;2023-02-28T06:08:57;12.90;;;7.00;;
42972;SDS011;28610;51.214;6.962;2023-02-28T06:11:42;11.30;;;7.47;;
42972;SDS011;28610;51.214;6.962;2023-02-28T06:14:29;10.90;;;7.50;;
42972;SDS011;28610;51.214;6.962;2023-02-28T06:17:15;12.30;;;7.10;;
42972;SDS011;28610;51.214;6.962;2023-02-28T06:20:00;8.73;;;6.83;;
42972;SDS011;28610;51.214;6.962;2023-02-28T06:22:46;10.17;;;7.00;;
42972;SDS011;28610;51.214;6.962;2023-02-28T06:25:33;10.37;;;7.30;;
42972;SDS011;28610;51.214;6.962;2023-02-28T06:28:19;12.23;;;7.27;;
42972;SDS011;28610;51.214;6.962;2023-02-28T06:31:07;9.87;;;7.60;;
42972;SDS011;28610;51.214;6.962;2023-02-28T06:33:53;9.47;;;7.37;;
42972;SDS011;28610;51.214;6.962;2023-02-28T06:36:38;12.37;;;7.90;;
42972;SDS011;28610;51.214;6.962;2023-02-28T06:39:24;8.97;;;6.97;;
42972;SDS011;28610;51.214;6.962;2023-02-28T06:42:09;9.17;;;7.00;;
42972;SDS011;28610;51.214;6.962;2023-02-28T06:44:55;10.27;;;6.90;;
42972;SDS011;28610;51.214;6.962;2023-02-28T06:47:43;11.93;;;7.53;;
42972;SDS011;28610;51.214;6.962;2023-02-28T06:50:29;9.37;;;7.17;;
42972;SDS011;28610;51.214;6.962;2023-02-28T06:53:16;10.97;;;7.43;;
42972;SDS011;28610;51.214;6.962;2023-02-28T06:56:03;10.43;;;7.70;;
42972;SDS011;28610;51.214;6.962;2023-02-28T06:58:50;8.97;;;7.00;;
42972;SDS011;28610;51.214;6.962;2023-02-28T07:01:36;9.07;;;7.07;;
42972;SDS011;28610;51.214;6.962;2023-02-28T07:04:23;8.60;;;6.93;;
42972;SDS011;28610;51.214;6.962;2023-02-28T07:07:09;10.67;;;6.90;;
42972;SDS011;28610;51.214;6.962;2023-02-28T07:09:54;8.23;;;6.30;;
42972;SDS011;28610;51.214;6.962;2023-02-28T07:12:40;7.17;;;6.27;;
42972;SDS011;28610;51.214;6.962;2023-02-28T07:15:26;9.47;;;6.17;;
42972;SDS011;28610;51.214;6.962;2023-02-28T07:18:13;9.43;;;6.60;;
42972;SDS011;28610;51.214;6.962;2023-02-28T07:21:01;8.77;;;6.30;;
42972;SDS011;28610;51.214;6.962;2023-02-28T07:23:46;10.07;;;6.30;;
42972;SDS011;28610;51.214;6.962;2023-02-28T07:26:32;11.30;;;6.30;;
42972;SDS011;28610;51.214;6.962;2023-02-28T07:29:18;11.00;;;6.10;;
42972;SDS011;28610;51.214;6.962;2023-02-28T07:32:04;10.17;;;6.00;;
42972;SDS011;28610;51.214;6.962;2023-02-28T07:34:50;12.20;;;6.50;;
42972;SDS011;28610;51.214;6.962;2023-02-28T07:37:37;11.97;;;6.27;;
42972;SDS011;28610;51.214;6.962;2023-02-28T07:40:22;9.10;;;5.90;;
42972;SDS011;28610;51.214;6.962;2023-02-28T07:43:08;9.50;;;6.10;;
42972;SDS011;28610;51.214;6.962;2023-02-28T07:45:53;8.70;;;6.23;;
42972;SDS011;28610;51.214;6.962;2023-02-28T07:48:39;9.97;;;6.30;;
42972;SDS011;28610;51.214;6.962;2023-02-28T07:51:25;9.87;;;6.47;;
42972;SDS011;28610;51.214;6.962;2023-02-28T07:54:12;14.53;;;6.27;;
42972;SDS011;28610;51.214;6.962;2023-02-28T07:56:58;12.80;;;6.67;;
42972;SDS011;28610;51.214;6.962;2023-02-28T07:59:43;13.37;;;6.50;;
42972;SDS011;28610;51.214;6.962;2023-02-28T08:02:29;14.50;;;6.30;;
42972;SDS011;28610;51.214;6.962;2023-02-28T08:05:14;9.37;;;6.37;;
42972;SDS011;28610;51.214;6.962;2023-02-28T08:08:00;12.53;;;6.50;;
42972;SDS011;28610;51.214;6.962;2023-02-28T08:10:47;15.27;;;5.80;;
42972;SDS011;28610;51.214;6.962;2023-02-28T08:13:33;10.53;;;6.30;;
42972;SDS011;28610;51.214;6.962;2023-02-28T08:16:18;8.47;;;5.63;;
42972;SDS011;28610;51.214;6.962;2023-02-28T08:19:05;8.53;;;6.30;;
42972;SDS011;28610;51.214;6.962;2023-02-28T08:21:51;12.27;;;6.30;;
42972;SDS011;28610;51.214;6.962;2023-02-28T08:24:36;13.93;;;6.17;;
42972;SDS011;28610;51.214;6.962;2023-02-28T08:27:23;10.43;;;6.10;;
42972;SDS011;28610;51.214;6.962;2023-02-28T08:30:09;7.90;;;5.50;;
42972;SDS011;28610;51.214;6.962;2023-02-28T08:32:55;9.53;;;6.13;;
42972;SDS011;28610;51.214;6.962;2023-02-28T08:35:41;11.13;;;6.10;;
42972;SDS011;28610;51.214;6.962;2023-02-28T08:38:26;10.97;;;6.13;;
42972;SDS011;28610;51.214;6.962;2023-02-28T08:41:12;10.23;;;5.90;;
42972;SDS011;28610;51.214;6.962;2023-02-28T08:43:59;6.90;;;5.20;;
42972;SDS011;28610;51.214;6.962;2023-02-28T08:46:44;6.90;;;5.10;;
42972;SDS011;28610;51.214;6.962;2023-02-28T08:49:30;7.87;;;5.17;;
42972;SDS011;28610;51.214;6.962;2023-02-28T08:52:16;6.03;;;4.97;;
42972;SDS011;28610;51.214;6.962;2023-02-28T08:55:02;9.87;;;5.03;;
42972;SDS011;28610;51.214;6.962;2023-02-28T08:57:48;6.87;;;5.20;;
42972;SDS011;28610;51.214;6.962;2023-02-28T09:00:36;5.93;;;4.90;;
42972;SDS011;28610;51.214;6.962;2023-02-28T09:03:21;6.40;;;4.80;;
42972;SDS011;28610;51.214;6.962;2023-02-28T09:06:08;6.57;;;4.73;;
42972;SDS011;28610;51.214;6.962;2023-02-28T09:08:55;6.07;;;4.90;;
42972;SDS011;28610;51.214;6.962;2023-02-28T09:11:43;8.50;;;4.70;;
42972;SDS011;28610;51.214;6.962;2023-02-28T09:14:28;4.80;;;4.30;;
42972;SDS011;28610;51.214;6.962;2023-02-28T09:17:15;4.87;;;4.37;;
42972;SDS011;28610;51.214;6.962;2023-02-28T09:20:01;7.00;;;4.30;;
42972;SDS011;28610;51.214;6.962;2023-02-28T09:22:46;6.90;;;4.73;;
42972;SDS011;28610;51.214;6.962;2023-02-28T09:25:32;5.57;;;4.67;;
42972;SDS011;28610;51.214;6.962;2023-02-28T09:28:18;8.07;;;5.30;;
42972;SDS011;28610;51.214;6.962;2023-02-28T09:31:03;6.63;;;4.63;;
42972;SDS011;28610;51.214;6.962;2023-02-28T09:33:51;6.37;;;4.97;;
42972;SDS011;28610;51.214;6.962;2023-02-28T09:36:36;6.07;;;5.00;;
42972;SDS011;28610;51.214;6.962;2023-02-28T09:39:22;4.90;;;4.40;;
42972;SDS011;28610;51.214;6.962;2023-02-28T09:42:12;6.10;;;4.40;;
42972;SDS011;28610;51.214;6.962;2023-02-28T09:45:05;9.13;;;4.30;;
42972;SDS011;28610;51.214;6.962;2023-02-28T09:47:52;5.90;;;4.30;;
42972;SDS011;28610;51.214;6.962;2023-02-28T09:50:41;7.50;;;4.60;;
42972;SDS011;28610;51.214;6.962;2023-02-28T09:53:31;4.43;;;4.03;;
42972;SDS011;28610;51.214;6.962;2023-02-28T09:56:18;6.53;;;4.27;;
42972;SDS011;28610;51.214;6.962;2023-02-28T09:59:10;4.10;;;3.70;;
42972;SDS011;28610;51.214;6.962;2023-02-28T10:02:02;5.50;;;4.03;;
42972;SDS011;28610;51.214;6.962;2023-02-28T10:04:50;6.97;;;3.93;;
42972;SDS011;28610;51.214;6.962;2023-02-28T10:07:46;5.67;;;3.90;;
42972;SDS011;28610;51.214;6.962;2023-02-28T10:10:36;7.47;;;4.10;;
42972;SDS011;28610;51.214;6.962;2023-02-28T10:13:24;5.20;;;3.97;;
42972;SDS011;28610;51.214;6.962;2023-02-28T10:16:10;7.20;;;4.13;;
42972;SDS011;28610;51.214;6.962;2023-02-28T10:18:57;4.00;;;3.60;;
42972;SDS011;28610;51.214;6.962;2023-02-28T10:21:46;5.43;;;3.90;;
42972;SDS011;28610;51.214;6.962;2023-02-28T10:24:35;5.73;;;4.00;;
42972;SDS011;28610;51.214;6.962;2023-02-28T10:27:21;7.03;;;3.97;;
42972;SDS011;28610;51.214;6.962;2023-02-28T10:30:09;7.77;;;3.93;;
42972;SDS011;28610;51.214;6.962;2023-02-28T10:32:57;5.07;;;4.17;;
42972;SDS011;28610;51.214;6.962;2023-02-28T10:35:42;4.10;;;3.73;;
42972;SDS011;28610;51.214;6.962;2023-02-28T10:38:31;6.07;;;4.10;;
42972;SDS011;28610;51.214;6.962;2023-02-28T10:41:27;6.93;;;4.33;;
42972;SDS011;28610;51.214;6.962;2023-02-28T10:44:15;5.57;;;4.20;;
42972;SDS011;28610;51.214;6.962;2023-02-28T10:47:03;5.07;;;3.90;;
42972;SDS011;28610;51.214;6.962;2023-02-28T10:49:49;4.43;;;3.90;;
42972;SDS011;28610;51.214;6.962;2023-02-28T10:52:37;5.17;;;3.73;;
42972;SDS011;28610;51.214;6.962;2023-02-28T10:55:25;7.00;;;3.93;;
42972;SDS011;28610;51.214;6.962;2023-02-28T10:58:21;5.80;;;4.20;;
42972;SDS011;28610;51.214;6.962;2023-02-28T11:01:10;5.10;;;4.00;;
42972;SDS011;28610;51.214;6.962;2023-02-28T11:03:57;4.97;;;4.17;;
42972;SDS011;28610;51.214;6.962;2023-02-28T11:06:43;5.03;;;4.00;;
42972;SDS011;28610;51.214;6.962;2023-02-28T11:09:30;7.83;;;4.27;;
42972;SDS011;28610;51.214;6.962;2023-02-28T11:12:20;4.57;;;3.90;;
42972;SDS011;28610;51.214;6.962;2023-02-28T11:15:19;5.67;;;4.20;;
42972;SDS011;28610;51.214;6.962;2023-02-28T11:18:21;5.07;;;4.13;;
42972;SDS011;28610;51.214;6.962;2023-02-28T11:21:09;6.93;;;4.00;;
42972;SDS011;28610;51.214;6.962;2023-02-28T11:23:57;4.80;;;3.90;;
42972;SDS011;28610;51.214;6.962;2023-02-28T11:26:47;6.67;;;4.27;;
42972;SDS011;28610;51.214;6.962;2023-02-28T11:29:33;4.63;;;4.13;;
42972;SDS011;28610;51.214;6.962;2023-02-28T11:32:20;6.03;;;4.00;;
42972;SDS011;28610;51.214;6.962;2023-02-28T11:35:13;6.67;;;4.37;;
42972;SDS011;28610;51.214;6.962;2023-02-28T11:38:01;8.50;;;5.10;;
42972;SDS011;28610;51.214;6.962;2023-02-28T11:40:49;8.90;;;5.00;;
42972;SDS011;28610;51.214;6.962;2023-02-28T11:43:40;10.37;;;5.70;;
42972;SDS011;28610;51.214;6.962;2023-02-28T11:46:30;9.73;;;5.07;;
42972;SDS011;28610;51.214;6.962;2023-02-28T11:49:22;5.03;;;4.53;;
42972;SDS011;28610;51.214;6.962;2023-02-28T11:52:15;5.17;;;4.07;;
42972;SDS011;28610;51.214;6.962;2023-02-28T11:55:06;5.83;;;4.37;;
42972;SDS011;28610;51.214;6.962;2023-02-28T11:57:57;6.20;;;4.53;;
42972;SDS011;28610;51.214;6.962;2023-02-28T12:00:57;6.60;;;4.73;;
42972;SDS011;28610;51.214;6.962;2023-02-28T12:03:48;8.10;;;4.40;;
42972;SDS011;28610;51.214;6.962;2023-02-28T12:06:38;6.50;;;4.50;;
42972;SDS011;28610;51.214;6.962;2023-02-28T12:09:32;5.63;;;4.23;;
42972;SDS011;28610;51.214;6.962;2023-02-28T12:12:23;4.63;;;4.03;;
42972;SDS011;28610;51.214;6.962;2023-02-28T12:15:27;4.77;;;4.20;;
42972;SDS011;28610;51.214;6.962;2023-02-28T12:18:22;4.57;;;4.17;;
42972;SDS011;28610;51.214;6.962;2023-02-28T12:21:11;5.47;;;4.20;;
42972;SDS011;28610;51.214;6.962;2023-02-28T12:24:04;4.93;;;4.20;;
42972;SDS011;28610;51.214;6.962;2023-02-28T12:26:55;6.67;;;4.10;;
42972;SDS011;28610;51.214;6.962;2023-02-28T12:29:46;6.37;;;4.17;;
42972;SDS011;28610;51.214;6.962;2023-02-28T12:32:33;6.07;;;4.33;;
42972;SDS011;28610;51.214;6.962;2023-02-28T12:35:22;8.40;;;4.93;;
42972;SDS011;28610;51.214;6.962;2023-02-28T12:38:09;7.77;;;4.50;;
42972;SDS011;28610;51.214;6.962;2023-02-28T12:41:00;8.17;;;4.60;;
42972;SDS011;28610;51.214;6.962;2023-02-28T12:43:46;7.03;;;4.37;;
42972;SDS011;28610;51.214;6.962;2023-02-28T12:46:33;10.57;;;5.40;;
42972;SDS011;28610;51.214;6.962;2023-02-28T12:49:22;5.90;;;4.50;;
42972;SDS011;28610;51.214;6.962;2023-02-28T12:52:08;6.83;;;4.27;;
42972;SDS011;28610;51.214;6.962;2023-02-28T12:54:59;8.63;;;4.80;;
42972;SDS011;28610;51.214;6.962;2023-02-28T12:57:50;6.50;;;4.50;;
42972;SDS011;28610;51.214;6.962;2023-02-28T13:00:38;5.57;;;4.30;;
42972;SDS011;28610;51.214;6.962;2023-02-28T13:03:33;6.73;;;4.50;;
42972;SDS011;28610;51.214;6.962;2023-02-28T13:06:28;7.80;;;4.80;;
42972;SDS011;28610;51.214;6.962;2023-02-28T13:09:24;6.13;;;4.50;;
42972;SDS011;28610;51.214;6.962;2023-02-28T13:12:13;6.60;;;4.43;;
42972;SDS011;28610;51.214;6.962;2023-02-28T13:15:06;7.33;;;4.93;;
42972;SDS011;28610;51.214;6.962;2023-02-28T13:17:56;8.00;;;4.77;;
42972;SDS011;28610;51.214;6.962;2023-02-28T13:20:47;7.93;;;5.00;;
42972;SDS011;28610;51.214;6.962;2023-02-28T13:23:39;6.20;;;4.77;;
42972;SDS011;28610;51.214;6.962;2023-02-28T13:29:30;7.23;;;4.40;;
42972;SDS011;28610;51.214;6.962;2023-02-28T13:32:29;6.40;;;4.50;;
42972;SDS011;28610;51.214;6.962;2023-02-28T13:38:33;6.47;;;4.70;;
42972;SDS011;28610;51.214;6.962;2023-02-28T13:41:40;7.10;;;5.20;;
42972;SDS011;28610;51.214;6.962;2023-02-28T13:44:26;7.37;;;4.90;;
42972;SDS011;28610;51.214;6.962;2023-02-28T13:47:22;5.90;;;4.80;;
42972;SDS011;28610;51.214;6.962;2023-02-28T13:50:21;9.93;;;5.37;;
42972;SDS011;28610;51.214;6.962;2023-02-28T13:56:10;8.00;;;4.70;;
42972;SDS011;28610;51.214;6.962;2023-02-28T13:59:06;8.40;;;5.10;;
42972;SDS011;28610;51.214;6.962;2023-02-28T14:01:57;6.80;;;4.70;;
42972;SDS011;28610;51.214;6.962;2023-02-28T14:04:50;8.27;;;4.57;;
42972;SDS011;28610;51.214;6.962;2023-02-28T14:07:40;8.50;;;5.10;;
42972;SDS011;28610;51.214;6.962;2023-02-28T14:10:28;11.30;;;4.90;;
42972;SDS011;28610;51.214;6.962;2023-02-28T14:16:23;7.60;;;5.00;;
42972;SDS011;28610;51.214;6.962;2023-02-28T14:19:11;7.60;;;5.10;;
42972;SDS011;28610;51.214;6.962;2023-02-28T14:22:00;8.53;;;4.93;;
42972;SDS011;28610;51.214;6.962;2023-02-28T14:24:59;9.27;;;5.30;;
42972;SDS011;28610;51.214;6.962;2023-02-28T14:27:48;6.83;;;4.80;;
42972;SDS011;28610;51.214;6.962;2023-02-28T14:30:56;8.20;;;5.10;;
42972;SDS011;28610;51.214;6.962;2023-02-28T14:33:46;8.60;;;5.30;;
42972;SDS011;28610;51.214;6.962;2023-02-28T14:36:40;6.10;;;5.00;;
42972;SDS011;28610;51.214;6.962;2023-02-28T14:39:26;6.67;;;4.97;;
42972;SDS011;28610;51.214;6.962;2023-02-28T14:42:32;7.23;;;4.97;;
42972;SDS011;28610;51.214;6.962;2023-02-28T14:45:19;7.63;;;5.33;;
42972;SDS011;28610;51.214;6.962;2023-02-28T14:48:08;5.93;;;5.00;;
42972;SDS011;28610;51.214;6.962;2023-02-28T14:50:55;8.67;;;5.20;;
42972;SDS011;28610;51.214;6.962;2023-02-28T14:53:41;6.53;;;4.63;;
42972;SDS011;28610;51.214;6.962;2023-02-28T14:56:27;7.70;;;5.20;;
42972;SDS011;28610;51.214;6.962;2023-02-28T14:59:26;7.67;;;5.20;;
42972;SDS011;28610;51.214;6.962;2023-02-28T15:02:17;7.87;;;5.33;;
42972;SDS011;28610;51.214;6.962;2023-02-28T15:05:10;7.00;;;5.50;;
42972;SDS011;28610;51.214;6.962;2023-02-28T15:08:02;10.57;;;5.27;;
42972;SDS011;28610;51.214;6.962;2023-02-28T15:10:53;8.77;;;5.33;;
42972;SDS011;28610;51.214;6.962;2023-02-28T15:13:39;6.90;;;5.20;;
42972;SDS011;28610;51.214;6.962;2023-02-28T15:16:28;7.17;;;5.10;;
42972;SDS011;28610;51.214;6.962;2023-02-28T15:19:17;6.70;;;5.07;;
42972;SDS011;28610;51.214;6.962;2023-02-28T15:22:04;8.67;;;5.03;;
42972;SDS011;28610;51.214;6.962;2023-02-28T15:24:51;6.80;;;4.83;;
42972;SDS011;28610;51.214;6.962;2023-02-28T15:27:39;7.57;;;4.83;;
42972;SDS011;28610;51.214;6.962;2023-02-28T15:30:28;7.97;;;5.30;;
42972;SDS011;28610;51.214;6.962;2023-02-28T15:33:19;7.00;;;5.40;;
42972;SDS011;28610;51.214;6.962;2023-02-28T15:36:09;5.50;;;4.90;;
42972;SDS011;28610;51.214;6.962;2023-02-28T15:38:56;6.40;;;5.03;;
42972;SDS011;28610;51.214;6.962;2023-02-28T15:41:42;8.83;;;5.23;;
42972;SDS011;28610;51.214;6.962;2023-02-28T15:44:33;7.17;;;5.30;;
42972;SDS011;28610;51.214;6.962;2023-02-28T15:47:19;8.33;;;5.50;;
42972;SDS011;28610;51.214;6.962;2023-02-28T15:50:09;8.83;;;5.17;;
42972;SDS011;28610;51.214;6.962;2023-02-28T15:52:56;6.93;;;5.07;;
42972;SDS011;28610;51.214;6.962;2023-02-28T15:55:42;6.80;;;5.40;;
42972;SDS011;28610;51.214;6.962;2023-02-28T15:58:27;7.47;;;5.40;;
42972;SDS011;28610;51.214;6.962;2023-02-28T16:01:19;8.00;;;4.90;;
42972;SDS011;28610;51.214;6.962;2023-02-28T16:04:07;7.50;;;5.53;;
42972;SDS011;28610;51.214;6.962;2023-02-28T16:07:01;8.20;;;5.50;;
42972;SDS011;28610;51.214;6.962;2023-02-28T16:09:47;8.17;;;5.47;;
42972;SDS011;28610;51.214;6.962;2023-02-28T16:12:33;9.87;;;5.70;;
42972;SDS011;28610;51.214;6.962;2023-02-28T16:15:20;13.20;;;5.83;;
42972;SDS011;28610;51.214;6.962;2023-02-28T16:18:07;8.80;;;6.00;;
42972;SDS011;28610;51.214;6.962;2023-02-28T16:20:53;8.17;;;5.50;;
42972;SDS011;28610;51.214;6.962;2023-02-28T16:23:41;8.80;;;5.90;;
42972;SDS011;28610;51.214;6.962;2023-02-28T16:29:16;12.00;;;6.07;;
42972;SDS011;28610;51.214;6.962;2023-02-28T16:32:05;9.80;;;5.90;;
42972;SDS011;28610;51.214;6.962;2023-02-28T16:34:50;9.37;;;6.27;;
42972;SDS011;28610;51.214;6.962;2023-02-28T16:37:36;9.53;;;6.03;;
42972;SDS011;28610;51.214;6.962;2023-02-28T16:40:24;9.33;;;6.10;;
42972;SDS011;28610;51.214;6.962;2023-02-28T16:43:13;7.80;;;6.10;;
42972;SDS011;28610;51.214;6.962;2023-02-28T16:46:00;8.40;;;6.43;;
42972;SDS011;28610;51.214;6.962;2023-02-28T16:48:47;7.83;;;6.10;;
42972;SDS011;28610;51.214;6.962;2023-02-28T16:51:34;9.63;;;6.40;;
42972;SDS011;28610;51.214;6.962;2023-02-28T16:54:20;9.83;;;6.50;;
42972;SDS011;28610;51.214;6.962;2023-02-28T16:57:09;9.40;;;6.27;;
42972;SDS011;28610;51.214;6.962;2023-02-28T17:00:00;9.10;;;6.40;;
42972;SDS011;28610;51.214;6.962;2023-02-28T17:02:46;8.67;;;6.00;;
42972;SDS011;28610;51.214;6.962;2023-02-28T17:05:33;9.77;;;6.20;;
42972;SDS011;28610;51.214;6.962;2023-02-28T17:08:21;11.03;;;7.07;;
42972;SDS011;28610;51.214;6.962;2023-02-28T17:11:07;10.23;;;6.10;;